Time;durP1;ratioP1;P1;durP2;ratioP2;P2;SDS_P1;SDS_P2;PMS_P1;PMS_P2;Temp;Humidity;BMP_temperature;BMP_pressure;BME280_temperature;BME280_humidity;BME280_pressure;Samples;Min_cycle;Max_cycle;Signal;HPM_P1;HPM_P2
2023/08/24 00:01:39;;;;;;;13.43;9.20;;;;;;;25.00;58.99;97107.81;5067583;28;20241;-74
2023/08/24 00:04:07;;;;;;;11.77;9.07;;;;;;;25.28;58.22;97111.09;5066179;28;20668;-71
2023/08/24 00:06:34;;;;;;;11.03;8.97;;;;;;;25.38;57.49;97114.47;5067258;28;20196;-70
2023/08/24 00:09:03;;;;;;;13.53;8.70;;;;;;;24.77;58.75;97071.44;5065990;28;20203;-78
2023/08/24 00:11:30;;;;;;;11.43;10.03;;;;;;;24.54;59.29;97083.50;5064693;28;20184;-71
2023/08/24 00:13:57;;;;;;;9.63;8.63;;;;;;;24.60;59.65;97091.66;5065690;28;20239;-75
2023/08/24 00:16:24;;;;;;;15.27;8.93;;;;;;;24.64;59.94;97094.81;5065838;28;20196;-72
2023/08/24 00:18:51;;;;;;;10.40;8.70;;;;;;;24.62;60.94;97100.28;5071034;28;20201;-75
2023/08/24 00:21:22;;;;;;;12.47;9.67;;;;;;;24.56;61.51;97092.09;5069747;28;20605;-72
2023/08/24 00:23:50;;;;;;;12.07;10.37;;;;;;;24.15;62.47;97083.03;5069213;28;20210;-73
2023/08/24 00:26:18;;;;;;;13.37;9.53;;;;;;;24.29;61.80;97061.31;5070723;28;20701;-72
2023/08/24 00:28:45;;;;;;;20.73;10.37;;;;;;;24.52;62.00;97078.34;5051620;28;20189;-74
2023/08/24 00:31:14;;;;;;;12.43;9.20;;;;;;;24.48;62.03;97084.13;5069493;28;20640;-72
2023/08/24 00:33:41;;;;;;;11.37;9.50;;;;;;;24.50;61.60;97084.78;5068116;28;20252;-71
2023/08/24 00:36:09;;;;;;;11.60;9.70;;;;;;;24.71;61.75;97095.88;5069347;28;20584;-71
2023/08/24 00:38:36;;;;;;;10.90;9.33;;;;;;;24.86;61.00;97076.59;5068249;28;20205;-75
2023/08/24 00:41:04;;;;;;;10.67;9.23;;;;;;;24.57;62.39;97085.81;5068834;28;20516;-72
2023/08/24 00:43:31;;;;;;;11.23;9.07;;;;;;;24.19;63.26;97065.84;5070438;28;20287;-70
2023/08/24 00:46:02;;;;;;;11.83;10.07;;;;;;;24.12;63.78;97081.50;5067922;28;20207;-71
2023/08/24 00:48:31;;;;;;;10.83;9.73;;;;;;;24.14;63.97;97062.81;5069140;28;20187;-71
2023/08/24 00:51:01;;;;;;;11.47;9.70;;;;;;;23.92;63.42;97065.91;5069001;28;20631;-71
2023/08/24 00:53:30;;;;;;;10.40;9.10;;;;;;;23.88;63.75;97075.97;5070410;28;20304;-79
2023/08/24 00:55:58;;;;;;;10.70;9.43;;;;;;;23.84;62.88;97082.56;5069413;28;20190;-74
2023/08/24 00:58:27;;;;;;;13.43;10.27;;;;;;;23.92;63.05;97082.63;5069579;28;20203;-71
2023/08/24 01:00:56;;;;;;;14.03;11.27;;;;;;;23.81;63.31;97066.97;5070082;28;20718;-72
2023/08/24 01:03:24;;;;;;;12.27;10.07;;;;;;;23.65;63.15;97063.34;5067094;28;20218;-72
2023/08/24 01:05:52;;;;;;;12.23;9.83;;;;;;;23.59;63.58;97051.56;5068988;28;20219;-72
2023/08/24 01:08:20;;;;;;;11.70;10.37;;;;;;;23.59;63.68;97066.59;5068591;28;20182;-75
2023/08/24 01:11:32;;;;;;;13.90;11.10;;;;;;;23.85;63.19;97075.44;5069996;28;20226;-72
2023/08/24 01:14:03;;;;;;;17.13;11.77;;;;;;;23.92;63.00;97072.06;5027411;28;20237;-71
2023/08/24 01:16:33;;;;;;;11.83;10.57;;;;;;;23.76;62.85;97069.22;5009658;28;20196;-73
2023/08/24 01:19:02;;;;;;;12.70;10.70;;;;;;;23.70;63.16;97058.44;5026038;28;20591;-72
2023/08/24 01:21:30;;;;;;;14.03;10.87;;;;;;;23.73;63.00;97058.97;5068424;28;20196;-72
2023/08/24 01:24:03;;;;;;;12.27;10.87;;;;;;;23.86;62.59;97058.59;5068476;28;20185;-71
2023/08/24 01:26:31;;;;;;;12.23;10.33;;;;;;;23.83;62.44;97043.84;5068149;28;20677;-71
2023/08/24 01:28:58;;;;;;;12.67;10.53;;;;;;;24.15;61.08;97052.06;5068127;28;20190;-82
2023/08/24 01:31:25;;;;;;;13.10;10.87;;;;;;;24.57;60.58;97064.63;5069977;28;20191;-78
2023/08/24 01:33:52;;;;;;;12.27;10.83;;;;;;;24.81;60.37;97052.38;5067006;28;20282;-78
2023/08/24 01:36:20;;;;;;;15.27;11.23;;;;;;;24.91;59.45;97041.69;5069689;28;20678;-80
2023/08/24 01:38:59;;;;;;;14.80;11.30;;;;;;;25.10;59.73;97052.03;5068255;28;20198;-85
2023/08/24 01:41:30;;;;;;;12.27;9.97;;;;;;;25.19;59.78;97059.03;5068165;28;20199;-84
2023/08/24 01:43:59;;;;;;;17.20;11.07;;;;;;;25.21;59.63;97051.75;5069322;28;20292;-77
2023/08/24 01:46:27;;;;;;;14.80;10.93;;;;;;;25.11;59.41;97045.75;5067039;28;20227;-72
2023/08/24 01:48:55;;;;;;;14.70;10.83;;;;;;;25.19;59.69;97053.72;5068414;28;20219;-73
2023/08/24 01:51:24;;;;;;;12.83;11.17;;;;;;;25.19;59.96;97048.44;5066555;28;20187;-73
2023/08/24 01:53:53;;;;;;;14.70;10.93;;;;;;;25.10;60.21;97041.41;5069221;28;20240;-72
2023/08/24 01:56:20;;;;;;;13.43;10.80;;;;;;;25.28;59.99;97055.44;5068030;28;20200;-72
2023/08/24 01:58:47;;;;;;;12.43;10.53;;;;;;;25.19;60.34;97044.94;5067795;28;20216;-73
2023/08/24 02:01:14;;;;;;;13.60;11.33;;;;;;;25.13;59.85;97041.13;5067736;28;20193;-76
2023/08/24 02:03:43;;;;;;;14.63;10.30;;;;;;;24.90;60.24;97029.41;5068012;28;20271;-80
2023/08/24 02:06:10;;;;;;;14.13;11.10;;;;;;;24.81;60.50;97033.84;5067901;28;20207;-75
2023/08/24 02:08:37;;;;;;;13.97;11.80;;;;;;;24.87;61.17;97035.03;5066335;28;20700;-75
2023/08/24 02:11:04;;;;;;;13.53;11.53;;;;;;;24.77;60.81;97026.38;5068842;28;20648;-76
2023/08/24 02:13:32;;;;;;;15.60;11.00;;;;;;;24.69;60.41;97026.31;5067768;28;20610;-74
2023/08/24 02:16:03;;;;;;;11.73;10.00;;;;;;;24.56;60.86;97020.59;5067497;28;20612;-74
2023/08/24 02:18:30;;;;;;;14.47;10.37;;;;;;;24.38;61.53;97027.78;5068641;28;20229;-74
2023/08/24 02:20:57;;;;;;;12.30;11.03;;;;;;;24.15;62.72;97033.56;5067429;28;20192;-77
2023/08/24 02:23:24;;;;;;;14.23;9.80;;;;;;;24.28;61.81;97038.44;5067497;28;20280;-80
2023/08/24 02:25:51;;;;;;;12.17;10.03;;;;;;;24.37;61.42;97016.34;5066676;28;20191;-72
2023/08/24 02:28:18;;;;;;;12.03;9.70;;;;;;;24.12;62.33;97022.44;5068727;28;20203;-72
2023/08/24 02:30:46;;;;;;;12.53;10.47;;;;;;;23.66;63.25;97025.34;5067154;28;20214;-80
2023/08/24 02:33:17;;;;;;;13.63;11.17;;;;;;;23.80;63.23;97028.25;5050212;28;20224;-72
2023/08/24 02:35:47;;;;;;;11.67;10.17;;;;;;;23.93;62.76;97025.22;5068320;28;20182;-77
2023/08/24 02:38:14;;;;;;;12.00;10.40;;;;;;;24.03;62.05;97021.56;5065980;28;20189;-84
2023/08/24 02:40:41;;;;;;;13.90;10.33;;;;;;;24.05;62.94;97024.06;5066185;28;20194;-79
2023/08/24 02:43:08;;;;;;;11.57;9.53;;;;;;;24.17;62.36;97021.00;5065524;28;20198;-83
2023/08/24 02:45:35;;;;;;;13.07;11.60;;;;;;;23.39;63.92;97024.41;5050630;28;20198;-77
2023/08/24 02:48:02;;;;;;;14.33;10.60;;;;;;;23.14;64.83;97018.97;5065883;28;20190;-80
2023/08/24 02:50:29;;;;;;;11.60;9.83;;;;;;;23.13;64.52;97026.06;5050432;28;20195;-77
2023/08/24 02:52:58;;;;;;;16.20;11.20;;;;;;;23.37;64.56;97014.94;5067872;28;20196;-83
2023/08/24 02:55:25;;;;;;;12.30;9.63;;;;;;;23.59;64.25;97027.75;5065695;28;20179;-73
2023/08/24 02:57:51;;;;;;;12.93;10.57;;;;;;;23.60;63.57;97024.13;5066906;28;20195;-77
2023/08/24 03:00:19;;;;;;;13.70;10.73;;;;;;;23.42;64.37;97018.00;5066566;28;20196;-78
2023/08/24 03:02:46;;;;;;;13.07;11.07;;;;;;;23.30;65.15;97019.16;5066648;28;20212;-77
2023/08/24 03:05:14;;;;;;;17.33;11.20;;;;;;;22.93;65.65;96969.03;5066634;28;20185;-71
2023/08/24 03:07:41;;;;;;;14.80;12.00;;;;;;;23.61;64.36;97020.50;5066341;28;20193;-71
2023/08/24 03:10:08;;;;;;;15.53;11.43;;;;;;;23.79;63.43;97005.47;5066230;28;20601;-76
2023/08/24 03:12:35;;;;;;;14.20;11.03;;;;;;;23.89;62.65;96998.25;5065680;28;20202;-81
2023/08/24 03:15:02;;;;;;;14.57;11.27;;;;;;;23.45;64.73;97010.59;5066688;28;20235;-75
2023/08/24 03:17:30;;;;;;;12.00;10.63;;;;;;;22.87;65.73;96976.72;5064625;28;20197;-72
2023/08/24 03:19:57;;;;;;;14.23;11.13;;;;;;;23.00;66.26;97012.38;5065693;28;20182;-82
2023/08/24 03:22:25;;;;;;;12.10;10.43;;;;;;;22.81;66.76;97022.22;5045316;28;20197;-78
2023/08/24 03:24:52;;;;;;;15.00;12.20;;;;;;;22.73;66.64;96998.34;5067565;28;20678;-78
2023/08/24 03:27:19;;;;;;;13.33;10.07;;;;;;;23.07;65.90;97021.38;5066600;28;20593;-75
2023/08/24 03:29:47;;;;;;;15.17;10.37;;;;;;;22.91;66.04;97023.84;5065990;28;20663;-74
2023/08/24 03:32:14;;;;;;;15.13;11.10;;;;;;;22.70;65.84;96959.00;5064595;28;20202;-79
2023/08/24 03:34:41;;;;;;;16.00;11.20;;;;;;;22.97;66.42;97012.69;5066298;28;20214;-81
2023/08/24 03:37:08;;;;;;;14.20;11.20;;;;;;;22.80;66.70;97012.59;5066303;28;20229;-77
2023/08/24 03:39:40;;;;;;;14.03;10.87;;;;;;;22.91;66.66;97015.06;5067757;28;20193;-78
2023/08/24 03:42:07;;;;;;;14.67;11.43;;;;;;;22.02;67.33;96918.84;5074964;28;20194;-76
2023/08/24 03:44:35;;;;;;;13.80;11.67;;;;;;;22.64;67.08;97021.16;5070565;28;20193;-71
2023/08/24 03:47:02;;;;;;;13.03;10.80;;;;;;;22.64;66.96;97022.00;5056157;28;20205;-73
2023/08/24 03:49:29;;;;;;;19.13;11.77;;;;;;;22.64;67.12;97027.28;5048161;28;20232;-74
2023/08/24 03:51:56;;;;;;;15.17;10.93;;;;;;;22.74;66.76;97036.94;5066499;28;20204;-73
2023/08/24 03:54:23;;;;;;;14.13;10.83;;;;;;;22.72;66.59;97020.44;5073713;28;20209;-75
2023/08/24 03:56:51;;;;;;;15.60;11.73;;;;;;;22.99;66.04;97031.00;5073083;28;20192;-74
2023/08/24 03:59:20;;;;;;;12.80;11.23;;;;;;;23.11;65.18;97025.38;5106830;28;20180;-82
2023/08/24 04:01:47;;;;;;;13.93;10.97;;;;;;;22.99;65.59;97009.88;5072806;28;20196;-82
2023/08/24 04:04:16;;;;;;;13.23;10.87;;;;;;;23.22;64.69;97022.56;5072894;28;20206;-77
2023/08/24 04:06:43;;;;;;;14.13;11.83;;;;;;;23.55;64.22;97026.41;5073393;28;20213;-78
2023/08/24 04:09:10;;;;;;;14.07;11.03;;;;;;;23.84;62.68;97027.00;5071936;28;20183;-72
2023/08/24 04:11:37;;;;;;;13.67;10.00;;;;;;;23.99;62.54;97028.09;5056605;28;20193;-71
2023/08/24 04:14:05;;;;;;;11.50;10.30;;;;;;;23.78;62.12;96998.50;5071525;28;20736;-85
2023/08/24 04:16:32;;;;;;;14.00;10.53;;;;;;;24.15;62.40;97017.66;5071994;28;20263;-74
2023/08/24 04:18:59;;;;;;;12.50;10.10;;;;;;;24.31;61.11;97021.44;5055126;28;20191;-72
2023/08/24 04:21:25;;;;;;;13.97;10.63;;;;;;;24.42;61.17;97021.19;5072440;28;20612;-72
2023/08/24 04:23:53;;;;;;;14.63;10.43;;;;;;;24.39;61.12;97026.78;5073431;28;20195;-72
2023/08/24 04:26:20;;;;;;;12.23;10.63;;;;;;;24.39;61.33;97029.41;5073446;28;20225;-74
2023/08/24 04:28:47;;;;;;;13.20;10.07;;;;;;;24.10;61.38;97019.97;5075665;28;20742;-73
2023/08/24 04:31:14;;;;;;;13.13;9.77;;;;;;;23.91;62.28;97020.09;5073603;28;20607;-77
2023/08/24 04:33:41;;;;;;;15.60;10.27;;;;;;;23.76;62.82;97034.03;5069535;28;20223;-76
2023/08/24 04:36:08;;;;;;;14.50;9.50;;;;;;;23.61;63.79;97044.31;5064747;28;20662;-84
2023/08/24 04:38:35;;;;;;;11.63;9.20;;;;;;;23.38;63.50;97019.28;5062814;28;20196;-72
2023/08/24 04:41:07;;;;;;;13.47;10.07;;;;;;;23.56;63.45;97035.97;5067952;28;20203;-83
2023/08/24 04:43:36;;;;;;;12.13;10.10;;;;;;;23.63;63.19;97030.91;5074700;28;20192;-86
2023/08/24 04:46:03;;;;;;;11.67;9.67;;;;;;;23.79;62.92;97037.19;5087372;28;20204;-80
2023/08/24 04:48:34;;;;;;;14.23;10.03;;;;;;;23.81;63.32;97040.53;5078257;28;20687;-75
2023/08/24 04:51:02;;;;;;;12.10;10.13;;;;;;;23.83;62.64;97017.41;5075306;28;20679;-83
2023/08/24 04:53:29;;;;;;;13.90;10.70;;;;;;;24.02;62.17;97032.25;5072592;28;20259;-82
2023/08/24 04:55:56;;;;;;;13.83;10.07;;;;;;;23.93;62.79;97012.84;5072306;28;20563;-82
2023/08/24 04:58:24;;;;;;;17.87;10.67;;;;;;;24.03;62.79;97034.78;5073352;28;20186;-83
2023/08/24 05:00:51;;;;;;;12.77;10.27;;;;;;;24.18;62.27;97038.56;5072424;28;20659;-79
2023/08/24 05:03:19;;;;;;;12.27;9.83;;;;;;;24.37;62.07;97047.28;5071483;28;20213;-73
2023/08/24 05:05:47;;;;;;;12.10;10.20;;;;;;;24.29;62.69;97041.94;5068927;28;20184;-83
2023/08/24 05:08:14;;;;;;;12.77;9.87;;;;;;;24.52;61.73;97048.38;5070254;28;20183;-84
2023/08/24 05:10:41;;;;;;;14.43;10.33;;;;;;;24.83;61.11;97044.31;5068761;28;20253;-82
2023/08/24 05:13:08;;;;;;;13.67;9.70;;;;;;;24.47;61.49;97043.56;5068670;28;20677;-75
2023/08/24 05:15:35;;;;;;;14.60;10.23;;;;;;;24.28;62.25;97038.44;5074200;28;20217;-78
2023/08/24 05:18:02;;;;;;;15.90;10.90;;;;;;;24.68;61.22;97056.44;5073048;28;20686;-80
2023/08/24 05:20:29;;;;;;;13.97;9.63;;;;;;;24.62;60.95;97036.69;5069864;28;20200;-81
2023/08/24 05:22:56;;;;;;;12.37;9.37;;;;;;;24.77;61.05;97066.13;5069201;28;20193;-78
2023/08/24 05:25:23;;;;;;;14.53;9.57;;;;;;;24.81;61.20;97046.28;5076511;28;20194;-75
2023/08/24 05:27:50;;;;;;;11.67;9.47;;;;;;;24.95;61.12;97064.22;5072327;28;20199;-82
2023/08/24 05:30:18;;;;;;;19.97;10.97;;;;;;;25.04;60.68;97044.72;5071552;28;20195;-84
2023/08/24 05:32:45;;;;;;;13.60;9.67;;;;;;;24.94;60.94;97055.44;5072642;28;20668;-85
2023/08/24 05:35:12;;;;;;;14.97;9.40;;;;;;;24.50;61.51;97051.19;5072329;28;20219;-83
2023/08/24 05:37:39;;;;;;;15.27;11.03;;;;;;;24.64;61.08;97049.78;5072080;28;20223;-86
2023/08/24 05:40:07;;;;;;;14.90;10.87;;;;;;;24.60;61.73;97064.31;5069551;28;20188;-88
2023/08/24 05:42:36;;;;;;;13.37;11.20;;;;;;;24.68;61.08;97067.84;5068766;28;20195;-87
2023/08/24 05:45:04;;;;;;;11.37;9.53;;;;;;;24.59;60.77;97046.75;5068834;28;20189;-86
2023/08/24 05:47:31;;;;;;;12.80;9.97;;;;;;;24.63;60.64;97037.50;5069646;28;20741;-85
2023/08/24 05:49:58;;;;;;;21.57;11.47;;;;;;;24.69;60.48;97072.16;5068799;28;20202;-78
2023/08/24 05:52:25;;;;;;;17.70;10.73;;;;;;;24.75;60.29;97079.50;5068745;28;20664;-87
2023/08/24 05:54:52;;;;;;;11.53;9.80;;;;;;;24.85;60.29;97068.81;5072335;28;20224;-86
2023/08/24 05:57:19;;;;;;;13.43;10.47;;;;;;;24.89;60.86;97076.28;5039509;28;20253;-82
2023/08/24 05:59:47;;;;;;;10.50;8.63;;;;;;;24.95;60.27;97067.72;5073718;28;20284;-83
2023/08/24 06:02:14;;;;;;;14.43;8.90;;;;;;;25.05;60.80;97070.25;5071609;28;20185;-87
2023/08/24 06:04:41;;;;;;;10.53;8.93;;;;;;;25.08;60.44;97069.91;5073634;28;20198;-74
2023/08/24 06:07:08;;;;;;;10.60;9.03;;;;;;;25.07;60.22;97081.50;5072179;28;20203;-85
2023/08/24 06:09:35;;;;;;;16.03;8.60;;;;;;;25.17;60.21;97081.38;5069143;28;20192;-88
2023/08/24 06:12:02;;;;;;;12.60;8.70;;;;;;;25.35;59.47;97092.75;5069195;28;20676;-80
2023/08/24 06:14:29;;;;;;;12.17;8.57;;;;;;;25.22;60.03;97093.19;5068302;28;20216;-85
2023/08/24 06:16:56;;;;;;;10.30;8.60;;;;;;;25.27;59.58;97084.72;5070849;28;20220;-81
2023/08/24 06:19:23;;;;;;;10.73;9.03;;;;;;;25.35;59.13;97098.84;5068146;28;20893;-81
2023/08/24 06:21:50;;;;;;;12.90;9.37;;;;;;;25.39;58.78;97100.19;5070443;28;20231;-85
2023/08/24 06:24:17;;;;;;;12.23;8.80;;;;;;;25.44;57.84;97087.34;5080872;28;20269;-75
2023/08/24 06:26:44;;;;;;;10.70;8.97;;;;;;;25.36;58.21;97089.09;5082134;28;20307;-82
2023/08/24 06:29:11;;;;;;;13.53;8.43;;;;;;;25.74;57.21;97094.69;5063720;28;20205;-82
2023/08/24 06:31:38;;;;;;;13.17;8.37;;;;;;;25.64;57.00;97083.41;5074253;28;20839;-79
2023/08/24 06:34:06;;;;;;;10.47;8.87;;;;;;;25.84;56.18;97082.13;5054098;28;20625;-81
2023/08/24 06:36:33;;;;;;;14.00;9.23;;;;;;;25.81;56.62;97085.13;5049496;28;20240;-77
2023/08/24 06:39:00;;;;;;;28.67;10.73;;;;;;;25.84;59.20;97086.63;5052191;28;20215;-80
2023/08/24 06:41:27;;;;;;;14.40;9.80;;;;;;;26.12;55.77;97093.31;5049393;28;20194;-79
2023/08/24 06:43:55;;;;;;;13.97;9.07;;;;;;;26.10;57.32;97094.47;5047070;28;20208;-80
2023/08/24 06:46:22;;;;;;;17.37;12.20;;;;;;;26.36;59.54;97103.09;5045980;28;20255;-84
2023/08/24 06:48:49;;;;;;;19.93;10.90;;;;;;;26.40;60.64;97093.78;5029410;28;20300;-77
2023/08/24 06:51:17;;;;;;;19.90;11.70;;;;;;;26.39;60.78;97090.34;5079854;28;20244;-80
2023/08/24 06:53:46;;;;;;;14.10;10.37;;;;;;;26.26;59.62;97078.53;5028305;28;20803;-79
2023/08/24 06:56:14;;;;;;;14.40;10.43;;;;;;;25.93;61.22;97084.78;5030385;28;20657;-77
2023/08/24 06:58:42;;;;;;;15.93;9.60;;;;;;;25.70;61.15;97074.78;5046353;28;20190;-75
2023/08/24 07:01:10;;;;;;;12.97;8.93;;;;;;;25.73;61.39;97087.75;5045871;28;20553;-77
2023/08/24 07:03:38;;;;;;;16.93;9.37;;;;;;;25.29;61.57;97040.31;5047002;28;20251;-81
2023/08/24 07:06:08;;;;;;;14.93;9.77;;;;;;;25.47;62.62;97079.03;5046044;28;20573;-79
2023/08/24 07:08:35;;;;;;;14.50;9.93;;;;;;;25.48;62.66;97090.47;5045831;28;20193;-73
2023/08/24 07:11:04;;;;;;;14.63;10.20;;;;;;;25.62;64.18;97108.44;5045922;28;20661;-76
2023/08/24 07:13:32;;;;;;;17.17;10.03;;;;;;;25.47;63.77;97107.41;5046427;28;20209;-74
2023/08/24 07:15:59;;;;;;;14.90;9.60;;;;;;;25.43;64.86;97104.22;5056178;28;20222;-75
2023/08/24 07:18:26;;;;;;;11.93;9.20;;;;;;;25.58;65.11;97094.66;5058135;28;20235;-79
2023/08/24 07:20:54;;;;;;;13.77;9.50;;;;;;;25.84;63.48;97094.56;5050304;28;20196;-77
2023/08/24 07:23:21;;;;;;;13.60;10.00;;;;;;;25.49;62.55;97100.13;5046765;28;20201;-78
2023/08/24 07:25:48;;;;;;;13.00;9.20;;;;;;;25.28;64.43;97102.31;5047121;28;20281;-75
2023/08/24 07:28:15;;;;;;;13.07;8.23;;;;;;;25.00;64.12;97110.47;5045467;28;20198;-74
2023/08/24 07:30:42;;;;;;;13.20;9.13;;;;;;;24.82;64.45;97085.00;5056346;28;20199;-76
2023/08/24 07:33:10;;;;;;;12.33;9.20;;;;;;;25.04;63.93;97095.06;5065896;28;20199;-74
2023/08/24 07:35:37;;;;;;;16.00;9.87;;;;;;;25.13;62.44;97107.38;5065081;28;20296;-73
2023/08/24 07:38:04;;;;;;;14.37;8.70;;;;;;;24.97;61.98;97083.44;5066400;28;20328;-73
2023/08/24 07:40:31;;;;;;;11.07;8.23;;;;;;;25.07;63.00;97089.47;5064728;28;20913;-72
2023/08/24 07:42:59;;;;;;;11.13;8.77;;;;;;;24.79;63.41;97109.19;5066327;28;20278;-74
2023/08/24 07:45:26;;;;;;;13.97;9.03;;;;;;;24.90;64.13;97106.25;5063626;28;20279;-72
2023/08/24 07:47:54;;;;;;;18.13;12.90;;;;;;;24.98;65.11;97111.59;5066214;28;20962;-73
2023/08/24 07:50:22;;;;;;;14.10;9.90;;;;;;;24.83;67.25;97118.50;5064238;28;20252;-76
2023/08/24 07:52:50;;;;;;;17.77;9.60;;;;;;;25.13;67.19;97118.00;5065940;28;20200;-72
2023/08/24 07:55:17;;;;;;;15.10;9.07;;;;;;;25.38;66.88;97124.22;5064749;28;20275;-73
2023/08/24 07:57:44;;;;;;;10.90;9.37;;;;;;;25.68;66.30;97126.34;5065881;28;20184;-72
2023/08/24 08:00:14;;;;;;;18.20;10.70;;;;;;;26.05;64.81;97124.13;5065813;28;20200;-75
2023/08/24 08:02:41;;;;;;;24.37;11.87;;;;;;;26.07;64.81;97111.53;5065561;28;20190;-76
2023/08/24 08:05:10;;;;;;;22.23;10.40;;;;;;;26.22;64.05;97128.50;5067361;28;20196;-72
2023/08/24 08:07:38;;;;;;;22.90;10.33;;;;;;;26.26;65.59;97121.03;5066762;28;20660;-76
2023/08/24 08:10:06;;;;;;;18.17;11.23;;;;;;;26.32;65.07;97120.34;5068555;28;20231;-75
2023/08/24 08:12:34;;;;;;;17.60;9.97;;;;;;;26.29;64.40;97116.22;5066496;28;20192;-73
2023/08/24 08:15:01;;;;;;;15.87;11.07;;;;;;;26.36;64.79;97122.53;5064584;28;20224;-73
2023/08/24 08:17:30;;;;;;;13.77;10.00;;;;;;;26.26;63.63;97115.72;5066687;28;20271;-73
2023/08/24 08:19:58;;;;;;;14.17;9.60;;;;;;;26.16;63.69;97112.38;5065213;28;20271;-74
2023/08/24 08:22:25;;;;;;;24.63;10.77;;;;;;;26.46;63.91;97122.38;5066331;28;20569;-77
2023/08/24 08:24:54;;;;;;;24.97;13.03;;;;;;;26.65;63.81;97124.66;5063870;28;20204;-72
2023/08/24 08:27:21;;;;;;;15.80;11.77;;;;;;;26.71;64.17;97105.41;5064544;28;20244;-72
2023/08/24 08:29:50;;;;;;;16.50;10.57;;;;;;;26.48;64.53;97101.78;5065099;28;20648;-72
2023/08/24 08:32:17;;;;;;;17.80;10.77;;;;;;;26.76;63.94;97112.91;5063803;28;20212;-72
2023/08/24 08:34:44;;;;;;;15.13;10.10;;;;;;;26.85;63.44;97106.59;5047741;28;20229;-79
2023/08/24 08:37:11;;;;;;;17.70;10.83;;;;;;;26.76;64.13;97116.41;5064974;28;20245;-75
2023/08/24 08:39:38;;;;;;;13.47;9.73;;;;;;;26.69;64.06;97109.25;5068119;28;20193;-73
2023/08/24 08:42:12;;;;;;;13.60;10.03;;;;;;;26.92;63.78;97113.69;5068458;28;20190;-74
2023/08/24 08:44:40;;;;;;;19.60;10.50;;;;;;;26.96;63.31;97099.06;5069649;28;20189;-79
2023/08/24 08:47:08;;;;;;;18.30;11.07;;;;;;;26.94;62.09;97071.81;5069229;28;20677;-76
2023/08/24 08:49:36;;;;;;;18.87;13.50;;;;;;;27.18;61.83;97102.84;5067271;28;20189;-78
2023/08/24 08:52:09;;;;;;;15.63;12.00;;;;;;;27.37;61.71;97097.97;5068316;28;20204;-79
2023/08/24 08:54:36;;;;;;;17.63;10.60;;;;;;;27.38;63.08;97104.97;5068762;28;20221;-77
2023/08/24 08:57:04;;;;;;;20.27;11.83;;;;;;;27.45;63.04;97089.09;5072551;28;20278;-73
2023/08/24 08:59:32;;;;;;;19.73;11.63;;;;;;;27.50;63.91;97102.72;5071488;28;20995;-75
2023/08/24 09:02:03;;;;;;;15.20;11.00;;;;;;;27.50;64.19;97085.94;5071771;28;20276;-74
2023/08/24 09:04:32;;;;;;;15.33;10.93;;;;;;;27.73;64.57;97092.97;5070326;28;20871;-76
2023/08/24 09:07:10;;;;;;;16.97;11.67;;;;;;;28.12;64.02;97106.22;5067553;28;20193;-72
2023/08/24 09:09:39;;;;;;;14.10;11.07;;;;;;;28.33;63.04;97093.09;5069828;28;20188;-77
2023/08/24 09:12:06;;;;;;;23.50;12.57;;;;;;;28.43;62.43;97100.81;5067843;28;20185;-73
2023/08/24 09:14:34;;;;;;;13.70;10.23;;;;;;;28.62;61.69;97092.38;5068856;28;20580;-76
2023/08/24 09:17:03;;;;;;;14.23;10.50;;;;;;;28.72;60.68;97069.78;5066424;28;20203;-74
2023/08/24 09:19:31;;;;;;;12.87;9.77;;;;;;;28.63;60.06;97068.19;5067164;28;20197;-74
2023/08/24 09:22:00;;;;;;;9.43;8.43;;;;;;;28.91;56.68;97079.09;5068842;28;20212;-74
2023/08/24 09:24:35;;;;;;;16.10;9.47;;;;;;;28.98;56.82;97050.66;5066092;28;20204;-72
2023/08/24 09:27:16;;;;;;;10.77;8.97;;;;;;;29.22;55.76;97060.25;5069173;28;20591;-76
2023/08/24 09:29:48;;;;;;;15.10;8.50;;;;;;;29.45;54.14;97058.31;5068094;28;20192;-68
2023/08/24 09:32:22;;;;;;;9.77;7.23;;;;;;;29.55;53.38;97056.16;5068625;28;20191;-73
2023/08/24 09:34:50;;;;;;;9.13;7.50;;;;;;;29.40;52.39;97052.69;5069226;28;20201;-77
2023/08/24 09:37:17;;;;;;;10.50;7.33;;;;;;;29.70;51.64;97054.25;5066394;28;20673;-74
2023/08/24 09:39:46;;;;;;;11.93;7.63;;;;;;;29.92;50.19;97061.34;5068551;28;20216;-74
2023/08/24 09:42:13;;;;;;;10.53;7.40;;;;;;;30.02;47.31;97043.16;5065877;28;20680;-73
2023/08/24 09:44:45;;;;;;;10.17;6.87;;;;;;;30.17;47.65;97054.56;5067322;28;20644;-72
2023/08/24 09:47:12;;;;;;;12.37;7.03;;;;;;;30.33;47.91;97051.69;5066875;28;20196;-74
2023/08/24 09:49:39;;;;;;;9.73;6.90;;;;;;;30.44;47.47;97051.13;5070188;28;20196;-74
2023/08/24 09:52:08;;;;;;;10.57;7.13;;;;;;;30.36;49.11;97029.06;5071586;28;20189;-77
2023/08/24 09:54:37;;;;;;;10.37;5.87;;;;;;;30.26;50.78;96991.13;5069929;28;20185;-76
2023/08/24 09:57:09;;;;;;;8.10;5.78;;;;;;;30.82;51.92;97037.44;5069883;28;20331;-72
2023/08/24 09:59:39;;;;;;;8.17;6.83;;;;;;;30.59;52.49;97024.31;5065879;28;20210;-73
2023/08/24 10:02:17;;;;;;;12.05;7.30;;;;;;;30.71;52.67;97033.44;5067453;28;20770;-75
2023/08/24 10:04:47;;;;;;;8.60;6.53;;;;;;;30.51;53.09;96981.69;5067448;28;20189;-80
2023/08/24 10:07:20;;;;;;;11.07;6.43;;;;;;;30.37;51.90;96954.06;5067628;28;20243;-74
2023/08/24 10:10:10;;;;;;;9.10;6.07;;;;;;;30.78;51.78;97004.91;5066411;28;20291;-76
2023/08/24 10:12:43;;;;;;;7.57;6.03;;;;;;;30.61;48.40;96986.69;5067522;28;20189;-77
2023/08/24 10:15:12;;;;;;;7.40;6.40;;;;;;;31.01;51.54;97013.50;5068237;28;20260;-74
2023/08/24 10:17:39;;;;;;;17.00;7.10;;;;;;;31.03;51.47;97014.13;5066967;28;20554;-76
2023/08/24 10:20:09;;;;;;;8.38;5.68;;;;;;;30.96;51.14;97015.09;5067344;28;20305;-82
2023/08/24 10:22:37;;;;;;;9.93;7.13;;;;;;;31.32;51.84;97010.34;5067695;28;20283;-76
2023/08/24 10:25:06;;;;;;;7.83;5.57;;;;;;;31.27;51.63;97004.75;5066440;28;20197;-78
2023/08/24 10:27:34;;;;;;;11.10;5.40;;;;;;;31.32;51.42;96989.75;5066396;28;20178;-78
2023/08/24 10:30:01;;;;;;;7.53;6.57;;;;;;;31.40;50.10;96996.81;5048576;28;20190;-73
2023/08/24 10:32:30;;;;;;;8.23;6.05;;;;;;;31.42;50.36;96999.28;5067769;28;20190;-78
2023/08/24 10:34:57;;;;;;;6.57;5.68;;;;;;;31.52;50.44;96997.06;5067430;28;20661;-75
2023/08/24 10:37:26;;;;;;;9.23;6.15;;;;;;;31.56;49.96;96998.31;5066145;28;20252;-77
2023/08/24 10:39:54;;;;;;;8.02;5.75;;;;;;;31.73;49.55;96999.59;5069419;28;20673;-73
2023/08/24 10:42:21;;;;;;;17.42;7.35;;;;;;;31.54;49.60;96968.22;5075925;28;20719;-76
2023/08/24 10:44:49;;;;;;;8.98;6.07;;;;;;;31.47;50.10;96992.28;5076184;28;20185;-74
2023/08/24 10:47:23;;;;;;;10.45;6.78;;;;;;;31.31;49.24;96976.56;5069869;28;20198;-80
2023/08/24 10:49:58;;;;;;;10.70;7.18;;;;;;;31.43;48.45;96974.19;5067571;28;20198;-73
2023/08/24 10:52:33;;;;;;;10.13;6.72;;;;;;;31.36;47.52;96971.44;5065973;28;20652;-82
2023/08/24 10:55:02;;;;;;;8.13;7.32;;;;;;;31.53;46.72;96974.63;5066399;28;20230;-76
2023/08/24 10:57:38;;;;;;;10.82;7.00;;;;;;;31.67;46.83;96974.44;5049539;28;20250;-79
2023/08/24 11:00:10;;;;;;;9.10;6.28;;;;;;;31.50;46.93;96924.97;5065687;28;20193;-75
2023/08/24 11:02:51;;;;;;;8.57;6.50;;;;;;;31.94;44.56;96962.75;5066386;28;20570;-75
2023/08/24 11:05:27;;;;;;;8.30;7.05;;;;;;;32.07;44.30;96935.97;5065288;28;20703;-77
2023/08/24 11:08:02;;;;;;;11.35;8.13;;;;;;;32.33;42.94;96940.50;5066297;28;20189;-80
2023/08/24 11:10:41;;;;;;;10.25;7.35;;;;;;;32.42;42.86;96933.84;5067136;28;20284;-77
2023/08/24 11:13:12;;;;;;;9.10;7.25;;;;;;;32.48;41.97;96924.22;5064151;28;20224;-76
2023/08/24 11:15:42;;;;;;;13.38;8.00;;;;;;;32.45;41.47;96927.25;5066861;28;20270;-75
2023/08/24 11:18:18;;;;;;;12.88;8.63;;;;;;;32.74;40.60;96916.09;5064691;28;20228;-76
2023/08/24 11:20:52;;;;;;;10.27;8.48;;;;;;;32.69;40.88;96897.94;5064682;28;20262;-77
2023/08/24 11:23:21;;;;;;;12.20;7.90;;;;;;;32.99;41.71;96905.50;5048954;28;20284;-77
2023/08/24 11:25:51;;;;;;;9.20;8.23;;;;;;;32.82;40.32;96907.78;5065771;28;20239;-78
2023/08/24 11:28:19;;;;;;;13.40;8.30;;;;;;;33.06;40.14;96915.16;5066922;28;20527;-75